sensor_id;sensor_type;location;lat;lon;timestamp;P1;durP1;ratioP1;P2;durP2;ratioP2
55300;SDS011;58302;51.446;-2.000;2022-11-23T00:00:56;7.85;;;3.90;;
55300;SDS011;58302;51.446;-2.000;2022-11-23T00:03:22;6.20;;;3.65;;
55300;SDS011;58302;51.446;-2.000;2022-11-23T00:05:48;12.02;;;3.55;;
55300;SDS011;58302;51.446;-2.000;2022-11-23T00:08:14;10.27;;;3.55;;
55300;SDS011;58302;51.446;-2.000;2022-11-23T00:10:39;6.97;;;3.53;;
55300;SDS011;58302;51.446;-2.000;2022-11-23T00:13:05;5.88;;;4.00;;
55300;SDS011;58302;51.446;-2.000;2022-11-23T00:15:31;6.15;;;3.17;;
55300;SDS011;58302;51.446;-2.000;2022-11-23T00:17:58;9.23;;;3.15;;
55300;SDS011;58302;51.446;-2.000;2022-11-23T00:20:27;7.85;;;3.35;;
55300;SDS011;58302;51.446;-2.000;2022-11-23T00:22:53;5.85;;;2.47;;
55300;SDS011;58302;51.446;-2.000;2022-11-23T00:25:19;10.05;;;6.40;;
55300;SDS011;58302;51.446;-2.000;2022-11-23T00:27:45;9.02;;;3.40;;
55300;SDS011;58302;51.446;-2.000;2022-11-23T00:30:11;7.85;;;3.35;;
55300;SDS011;58302;51.446;-2.000;2022-11-23T00:32:37;10.63;;;3.50;;
55300;SDS011;58302;51.446;-2.000;2022-11-23T00:35:03;7.90;;;4.45;;
55300;SDS011;58302;51.446;-2.000;2022-11-23T00:37:29;9.38;;;4.00;;
55300;SDS011;58302;51.446;-2.000;2022-11-23T00:39:55;10.50;;;3.88;;
55300;SDS011;58302;51.446;-2.000;2022-11-23T00:42:21;10.88;;;6.65;;
55300;SDS011;58302;51.446;-2.000;2022-11-23T00:44:47;5.75;;;4.40;;
55300;SDS011;58302;51.446;-2.000;2022-11-23T00:47:13;6.55;;;3.05;;
55300;SDS011;58302;51.446;-2.000;2022-11-23T00:49:38;9.68;;;3.60;;
55300;SDS011;58302;51.446;-2.000;2022-11-23T00:52:04;8.60;;;3.63;;
55300;SDS011;58302;51.446;-2.000;2022-11-23T00:54:30;15.75;;;4.43;;
55300;SDS011;58302;51.446;-2.000;2022-11-23T00:56:56;13.50;;;5.82;;
55300;SDS011;58302;51.446;-2.000;2022-11-23T00:59:22;17.00;;;8.32;;
55300;SDS011;58302;51.446;-2.000;2022-11-23T01:01:48;16.42;;;9.90;;
55300;SDS011;58302;51.446;-2.000;2022-11-23T01:04:14;9.40;;;4.60;;
55300;SDS011;58302;51.446;-2.000;2022-11-23T01:06:40;8.05;;;3.72;;
55300;SDS011;58302;51.446;-2.000;2022-11-23T01:09:07;7.78;;;2.63;;
55300;SDS011;58302;51.446;-2.000;2022-11-23T01:11:38;7.68;;;2.60;;
55300;SDS011;58302;51.446;-2.000;2022-11-23T01:14:04;6.50;;;3.05;;
55300;SDS011;58302;51.446;-2.000;2022-11-23T01:16:32;10.50;;;2.55;;
55300;SDS011;58302;51.446;-2.000;2022-11-23T01:19:01;7.38;;;2.80;;
55300;SDS011;58302;51.446;-2.000;2022-11-23T01:21:30;8.13;;;3.45;;
55300;SDS011;58302;51.446;-2.000;2022-11-23T01:23:57;7.93;;;2.53;;
55300;SDS011;58302;51.446;-2.000;2022-11-23T01:26:23;4.43;;;2.08;;
55300;SDS011;58302;51.446;-2.000;2022-11-23T01:28:49;5.97;;;2.08;;
55300;SDS011;58302;51.446;-2.000;2022-11-23T01:31:20;5.57;;;2.22;;
55300;SDS011;58302;51.446;-2.000;2022-11-23T01:33:51;3.35;;;1.63;;
55300;SDS011;58302;51.446;-2.000;2022-11-23T01:36:27;4.60;;;2.33;;
55300;SDS011;58302;51.446;-2.000;2022-11-23T01:38:56;6.32;;;2.42;;
55300;SDS011;58302;51.446;-2.000;2022-11-23T01:41:24;12.85;;;4.32;;
55300;SDS011;58302;51.446;-2.000;2022-11-23T01:43:52;5.65;;;2.28;;
55300;SDS011;58302;51.446;-2.000;2022-11-23T01:46:19;11.55;;;4.03;;
55300;SDS011;58302;51.446;-2.000;2022-11-23T01:48:46;7.53;;;3.15;;
55300;SDS011;58302;51.446;-2.000;2022-11-23T01:51:19;8.00;;;3.80;;
55300;SDS011;58302;51.446;-2.000;2022-11-23T01:53:48;5.47;;;2.22;;
55300;SDS011;58302;51.446;-2.000;2022-11-23T01:56:19;4.63;;;1.92;;
55300;SDS011;58302;51.446;-2.000;2022-11-23T01:58:52;10.48;;;2.55;;
55300;SDS011;58302;51.446;-2.000;2022-11-23T02:01:21;5.18;;;2.10;;
55300;SDS011;58302;51.446;-2.000;2022-11-23T02:03:47;7.97;;;1.60;;
55300;SDS011;58302;51.446;-2.000;2022-11-23T02:06:17;6.63;;;1.92;;
55300;SDS011;58302;51.446;-2.000;2022-11-23T02:08:45;5.30;;;1.88;;
55300;SDS011;58302;51.446;-2.000;2022-11-23T02:11:12;4.25;;;2.15;;
55300;SDS011;58302;51.446;-2.000;2022-11-23T02:13:40;5.55;;;1.80;;
55300;SDS011;58302;51.446;-2.000;2022-11-23T02:16:09;6.32;;;2.03;;
55300;SDS011;58302;51.446;-2.000;2022-11-23T02:18:36;4.97;;;2.97;;
55300;SDS011;58302;51.446;-2.000;2022-11-23T02:21:04;6.07;;;3.08;;
55300;SDS011;58302;51.446;-2.000;2022-11-23T02:26:13;9.95;;;5.18;;
55300;SDS011;58302;51.446;-2.000;2022-11-23T02:28:44;6.63;;;2.53;;
55300;SDS011;58302;51.446;-2.000;2022-11-23T02:31:14;16.15;;;3.60;;
55300;SDS011;58302;51.446;-2.000;2022-11-23T02:33:40;4.57;;;1.50;;
55300;SDS011;58302;51.446;-2.000;2022-11-23T02:41:47;5.53;;;4.07;;
55300;SDS011;58302;51.446;-2.000;2022-11-23T02:47:24;4.55;;;2.22;;
55300;SDS011;58302;51.446;-2.000;2022-11-23T02:49:50;7.38;;;2.30;;
55300;SDS011;58302;51.446;-2.000;2022-11-23T02:52:16;4.80;;;1.90;;
55300;SDS011;58302;51.446;-2.000;2022-11-23T02:54:43;3.92;;;2.85;;
55300;SDS011;58302;51.446;-2.000;2022-11-23T02:57:09;4.18;;;2.20;;
55300;SDS011;58302;51.446;-2.000;2022-11-23T02:59:35;5.30;;;1.85;;
55300;SDS011;58302;51.446;-2.000;2022-11-23T03:02:02;8.20;;;2.00;;
55300;SDS011;58302;51.446;-2.000;2022-11-23T03:04:29;6.22;;;1.98;;
55300;SDS011;58302;51.446;-2.000;2022-11-23T03:06:55;7.03;;;2.17;;
55300;SDS011;58302;51.446;-2.000;2022-11-23T03:09:22;4.82;;;2.05;;
55300;SDS011;58302;51.446;-2.000;2022-11-23T03:11:48;5.15;;;2.40;;
55300;SDS011;58302;51.446;-2.000;2022-11-23T03:14:14;5.82;;;2.92;;
55300;SDS011;58302;51.446;-2.000;2022-11-23T03:16:40;6.95;;;1.85;;
55300;SDS011;58302;51.446;-2.000;2022-11-23T03:19:06;9.48;;;2.58;;
55300;SDS011;58302;51.446;-2.000;2022-11-23T03:21:32;4.47;;;1.98;;
55300;SDS011;58302;51.446;-2.000;2022-11-23T03:23:58;5.05;;;2.55;;
55300;SDS011;58302;51.446;-2.000;2022-11-23T03:26:24;9.30;;;2.13;;
55300;SDS011;58302;51.446;-2.000;2022-11-23T03:28:50;4.60;;;2.15;;
55300;SDS011;58302;51.446;-2.000;2022-11-23T03:31:16;6.80;;;2.38;;
55300;SDS011;58302;51.446;-2.000;2022-11-23T03:33:42;7.28;;;3.00;;
55300;SDS011;58302;51.446;-2.000;2022-11-23T03:36:08;6.55;;;3.22;;
55300;SDS011;58302;51.446;-2.000;2022-11-23T03:38:34;4.22;;;1.73;;
55300;SDS011;58302;51.446;-2.000;2022-11-23T03:41:00;4.78;;;2.35;;
55300;SDS011;58302;51.446;-2.000;2022-11-23T03:43:26;5.85;;;2.80;;
55300;SDS011;58302;51.446;-2.000;2022-11-23T03:45:52;3.75;;;1.35;;
55300;SDS011;58302;51.446;-2.000;2022-11-23T03:48:18;10.73;;;2.65;;
55300;SDS011;58302;51.446;-2.000;2022-11-23T03:50:44;6.03;;;2.00;;
55300;SDS011;58302;51.446;-2.000;2022-11-23T03:53:10;1.52;;;1.20;;
55300;SDS011;58302;51.446;-2.000;2022-11-23T03:55:36;7.47;;;1.92;;
55300;SDS011;58302;51.446;-2.000;2022-11-23T03:58:03;6.82;;;1.55;;
55300;SDS011;58302;51.446;-2.000;2022-11-23T04:00:29;7.28;;;1.40;;
55300;SDS011;58302;51.446;-2.000;2022-11-23T04:02:56;4.30;;;1.90;;
55300;SDS011;58302;51.446;-2.000;2022-11-23T04:05:22;5.25;;;1.98;;
55300;SDS011;58302;51.446;-2.000;2022-11-23T04:07:48;5.05;;;2.28;;
55300;SDS011;58302;51.446;-2.000;2022-11-23T04:10:15;6.43;;;1.98;;
55300;SDS011;58302;51.446;-2.000;2022-11-23T04:12:42;3.83;;;1.63;;
55300;SDS011;58302;51.446;-2.000;2022-11-23T04:15:08;6.55;;;2.17;;
55300;SDS011;58302;51.446;-2.000;2022-11-23T04:17:35;7.65;;;2.42;;
55300;SDS011;58302;51.446;-2.000;2022-11-23T04:20:01;4.60;;;2.22;;
55300;SDS011;58302;51.446;-2.000;2022-11-23T04:22:26;5.63;;;2.03;;
55300;SDS011;58302;51.446;-2.000;2022-11-23T04:24:52;6.07;;;2.38;;
55300;SDS011;58302;51.446;-2.000;2022-11-23T04:27:18;6.95;;;2.28;;
55300;SDS011;58302;51.446;-2.000;2022-11-23T04:29:44;5.97;;;2.28;;
55300;SDS011;58302;51.446;-2.000;2022-11-23T04:32:10;7.13;;;3.35;;
55300;SDS011;58302;51.446;-2.000;2022-11-23T04:34:36;6.00;;;1.77;;
55300;SDS011;58302;51.446;-2.000;2022-11-23T04:37:02;9.77;;;2.72;;
55300;SDS011;58302;51.446;-2.000;2022-11-23T04:39:28;11.52;;;1.70;;
55300;SDS011;58302;51.446;-2.000;2022-11-23T04:41:54;3.28;;;1.15;;
55300;SDS011;58302;51.446;-2.000;2022-11-23T04:44:20;4.32;;;0.98;;
55300;SDS011;58302;51.446;-2.000;2022-11-23T04:46:46;11.30;;;2.40;;
55300;SDS011;58302;51.446;-2.000;2022-11-23T04:49:12;6.13;;;4.53;;
55300;SDS011;58302;51.446;-2.000;2022-11-23T04:51:38;4.47;;;1.85;;
55300;SDS011;58302;51.446;-2.000;2022-11-23T04:54:04;5.72;;;1.52;;
55300;SDS011;58302;51.446;-2.000;2022-11-23T04:56:30;4.95;;;1.48;;
55300;SDS011;58302;51.446;-2.000;2022-11-23T04:58:56;5.28;;;1.83;;
55300;SDS011;58302;51.446;-2.000;2022-11-23T05:01:22;5.20;;;1.33;;
55300;SDS011;58302;51.446;-2.000;2022-11-23T05:03:48;6.68;;;3.05;;
55300;SDS011;58302;51.446;-2.000;2022-11-23T05:06:14;6.75;;;1.23;;
55300;SDS011;58302;51.446;-2.000;2022-11-23T05:08:39;6.00;;;1.92;;
55300;SDS011;58302;51.446;-2.000;2022-11-23T05:11:07;10.57;;;2.22;;
55300;SDS011;58302;51.446;-2.000;2022-11-23T05:13:33;8.43;;;2.35;;
55300;SDS011;58302;51.446;-2.000;2022-11-23T05:15:59;6.03;;;1.65;;
55300;SDS011;58302;51.446;-2.000;2022-11-23T05:18:25;7.65;;;1.60;;
55300;SDS011;58302;51.446;-2.000;2022-11-23T05:20:51;14.27;;;4.82;;
55300;SDS011;58302;51.446;-2.000;2022-11-23T05:23:17;7.50;;;2.88;;
55300;SDS011;58302;51.446;-2.000;2022-11-23T05:25:43;7.72;;;2.10;;
55300;SDS011;58302;51.446;-2.000;2022-11-23T05:28:13;7.90;;;1.65;;
55300;SDS011;58302;51.446;-2.000;2022-11-23T05:30:41;8.60;;;1.92;;
55300;SDS011;58302;51.446;-2.000;2022-11-23T05:33:07;4.00;;;1.02;;
55300;SDS011;58302;51.446;-2.000;2022-11-23T05:35:33;9.05;;;1.67;;
55300;SDS011;58302;51.446;-2.000;2022-11-23T05:38:00;4.40;;;2.90;;
55300;SDS011;58302;51.446;-2.000;2022-11-23T05:40:26;12.30;;;2.80;;
55300;SDS011;58302;51.446;-2.000;2022-11-23T05:42:56;3.75;;;1.42;;
55300;SDS011;58302;51.446;-2.000;2022-11-23T05:45:24;6.45;;;2.10;;
55300;SDS011;58302;51.446;-2.000;2022-11-23T05:47:51;5.03;;;2.35;;
55300;SDS011;58302;51.446;-2.000;2022-11-23T05:50:18;6.28;;;1.65;;
55300;SDS011;58302;51.446;-2.000;2022-11-23T05:52:45;5.72;;;2.63;;
55300;SDS011;58302;51.446;-2.000;2022-11-23T05:55:11;4.18;;;1.50;;
55300;SDS011;58302;51.446;-2.000;2022-11-23T05:57:37;1.48;;;1.38;;
55300;SDS011;58302;51.446;-2.000;2022-11-23T06:00:04;5.97;;;0.95;;
55300;SDS011;58302;51.446;-2.000;2022-11-23T06:02:31;3.80;;;1.27;;
55300;SDS011;58302;51.446;-2.000;2022-11-23T06:04:57;3.10;;;0.70;;
55300;SDS011;58302;51.446;-2.000;2022-11-23T06:07:23;7.82;;;1.58;;
55300;SDS011;58302;51.446;-2.000;2022-11-23T06:09:48;1.10;;;0.45;;
55300;SDS011;58302;51.446;-2.000;2022-11-23T06:12:14;8.02;;;1.40;;
55300;SDS011;58302;51.446;-2.000;2022-11-23T06:14:40;2.97;;;0.95;;
55300;SDS011;58302;51.446;-2.000;2022-11-23T06:17:06;3.10;;;0.95;;
55300;SDS011;58302;51.446;-2.000;2022-11-23T06:19:33;2.80;;;0.90;;
55300;SDS011;58302;51.446;-2.000;2022-11-23T06:21:59;1.27;;;0.98;;
55300;SDS011;58302;51.446;-2.000;2022-11-23T06:24:25;0.98;;;0.70;;
55300;SDS011;58302;51.446;-2.000;2022-11-23T06:26:51;5.43;;;1.67;;
55300;SDS011;58302;51.446;-2.000;2022-11-23T06:29:17;1.83;;;1.10;;
55300;SDS011;58302;51.446;-2.000;2022-11-23T06:31:47;2.50;;;0.90;;
55300;SDS011;58302;51.446;-2.000;2022-11-23T06:34:13;3.38;;;1.20;;
55300;SDS011;58302;51.446;-2.000;2022-11-23T06:36:39;5.82;;;2.95;;
55300;SDS011;58302;51.446;-2.000;2022-11-23T06:39:05;1.83;;;1.00;;
55300;SDS011;58302;51.446;-2.000;2022-11-23T06:41:31;3.65;;;1.60;;
55300;SDS011;58302;51.446;-2.000;2022-11-23T06:43:57;2.95;;;1.55;;
55300;SDS011;58302;51.446;-2.000;2022-11-23T06:46:22;2.30;;;0.80;;
55300;SDS011;58302;51.446;-2.000;2022-11-23T06:48:48;1.40;;;1.20;;
55300;SDS011;58302;51.446;-2.000;2022-11-23T06:51:14;1.80;;;1.00;;
55300;SDS011;58302;51.446;-2.000;2022-11-23T06:53:40;1.45;;;0.82;;
55300;SDS011;58302;51.446;-2.000;2022-11-23T06:56:06;1.63;;;0.63;;
55300;SDS011;58302;51.446;-2.000;2022-11-23T06:58:33;0.60;;;0.30;;
55300;SDS011;58302;51.446;-2.000;2022-11-23T07:01:00;0.82;;;0.70;;
55300;SDS011;58302;51.446;-2.000;2022-11-23T07:03:27;1.15;;;0.43;;
55300;SDS011;58302;51.446;-2.000;2022-11-23T07:05:53;0.32;;;0.22;;
55300;SDS011;58302;51.446;-2.000;2022-11-23T07:08:19;2.72;;;0.45;;
55300;SDS011;58302;51.446;-2.000;2022-11-23T07:10:45;1.63;;;0.55;;
55300;SDS011;58302;51.446;-2.000;2022-11-23T07:13:11;1.00;;;0.40;;
55300;SDS011;58302;51.446;-2.000;2022-11-23T07:15:38;2.97;;;1.00;;
55300;SDS011;58302;51.446;-2.000;2022-11-23T07:18:04;0.45;;;0.30;;
55300;SDS011;58302;51.446;-2.000;2022-11-23T07:20:31;0.77;;;0.30;;
55300;SDS011;58302;51.446;-2.000;2022-11-23T07:23:01;1.95;;;0.60;;
55300;SDS011;58302;51.446;-2.000;2022-11-23T07:25:32;0.30;;;0.20;;
55300;SDS011;58302;51.446;-2.000;2022-11-23T07:27:59;0.80;;;0.60;;
55300;SDS011;58302;51.446;-2.000;2022-11-23T07:30:27;0.30;;;0.30;;
55300;SDS011;58302;51.446;-2.000;2022-11-23T07:33:02;0.73;;;0.60;;
55300;SDS011;58302;51.446;-2.000;2022-11-23T07:35:30;0.95;;;0.40;;
55300;SDS011;58302;51.446;-2.000;2022-11-23T07:37:57;0.80;;;0.38;;
55300;SDS011;58302;51.446;-2.000;2022-11-23T07:40:24;2.65;;;0.60;;
55300;SDS011;58302;51.446;-2.000;2022-11-23T07:42:50;1.85;;;0.57;;
55300;SDS011;58302;51.446;-2.000;2022-11-23T07:45:16;2.40;;;0.57;;
55300;SDS011;58302;51.446;-2.000;2022-11-23T07:47:43;3.13;;;0.98;;
55300;SDS011;58302;51.446;-2.000;2022-11-23T07:50:09;1.25;;;0.73;;
55300;SDS011;58302;51.446;-2.000;2022-11-23T07:52:37;1.90;;;0.93;;
55300;SDS011;58302;51.446;-2.000;2022-11-23T07:55:04;2.95;;;0.88;;
55300;SDS011;58302;51.446;-2.000;2022-11-23T07:57:30;4.85;;;1.00;;
55300;SDS011;58302;51.446;-2.000;2022-11-23T07:59:56;3.15;;;0.85;;
55300;SDS011;58302;51.446;-2.000;2022-11-23T08:02:22;2.95;;;1.02;;
55300;SDS011;58302;51.446;-2.000;2022-11-23T08:04:48;5.97;;;1.17;;
55300;SDS011;58302;51.446;-2.000;2022-11-23T08:07:14;1.92;;;1.10;;
55300;SDS011;58302;51.446;-2.000;2022-11-23T08:09:40;6.63;;;1.63;;
55300;SDS011;58302;51.446;-2.000;2022-11-23T08:12:06;10.10;;;2.10;;
55300;SDS011;58302;51.446;-2.000;2022-11-23T08:14:32;6.07;;;1.80;;
55300;SDS011;58302;51.446;-2.000;2022-11-23T08:16:58;4.68;;;2.28;;
55300;SDS011;58302;51.446;-2.000;2022-11-23T08:19:24;8.23;;;1.50;;
55300;SDS011;58302;51.446;-2.000;2022-11-23T08:21:50;4.70;;;1.25;;
55300;SDS011;58302;51.446;-2.000;2022-11-23T08:24:16;8.10;;;1.38;;
55300;SDS011;58302;51.446;-2.000;2022-11-23T08:26:42;5.32;;;1.20;;
55300;SDS011;58302;51.446;-2.000;2022-11-23T08:29:07;5.38;;;1.50;;
55300;SDS011;58302;51.446;-2.000;2022-11-23T08:31:33;4.22;;;1.58;;
55300;SDS011;58302;51.446;-2.000;2022-11-23T08:33:59;5.97;;;1.83;;
55300;SDS011;58302;51.446;-2.000;2022-11-23T08:36:26;8.23;;;2.03;;
55300;SDS011;58302;51.446;-2.000;2022-11-23T08:38:51;6.13;;;1.88;;
55300;SDS011;58302;51.446;-2.000;2022-11-23T08:41:19;10.40;;;2.35;;
55300;SDS011;58302;51.446;-2.000;2022-11-23T08:43:49;3.40;;;1.35;;
55300;SDS011;58302;51.446;-2.000;2022-11-23T08:46:15;7.60;;;2.45;;
55300;SDS011;58302;51.446;-2.000;2022-11-23T08:48:41;8.77;;;1.90;;
55300;SDS011;58302;51.446;-2.000;2022-11-23T08:51:08;11.35;;;2.10;;
55300;SDS011;58302;51.446;-2.000;2022-11-23T08:53:35;6.95;;;1.83;;
55300;SDS011;58302;51.446;-2.000;2022-11-23T08:56:01;5.05;;;2.45;;
55300;SDS011;58302;51.446;-2.000;2022-11-23T08:58:29;7.50;;;1.95;;
55300;SDS011;58302;51.446;-2.000;2022-11-23T09:00:55;4.25;;;2.13;;
55300;SDS011;58302;51.446;-2.000;2022-11-23T09:03:21;11.07;;;2.30;;
55300;SDS011;58302;51.446;-2.000;2022-11-23T09:05:47;6.32;;;1.70;;
55300;SDS011;58302;51.446;-2.000;2022-11-23T09:08:13;5.95;;;2.10;;
55300;SDS011;58302;51.446;-2.000;2022-11-23T09:10:40;11.55;;;2.55;;
55300;SDS011;58302;51.446;-2.000;2022-11-23T09:13:07;5.93;;;1.80;;
55300;SDS011;58302;51.446;-2.000;2022-11-23T09:15:33;6.07;;;2.45;;
55300;SDS011;58302;51.446;-2.000;2022-11-23T09:17:59;8.05;;;2.40;;
55300;SDS011;58302;51.446;-2.000;2022-11-23T09:20:25;7.90;;;1.30;;
55300;SDS011;58302;51.446;-2.000;2022-11-23T09:22:52;8.02;;;2.05;;
55300;SDS011;58302;51.446;-2.000;2022-11-23T09:25:19;8.73;;;1.90;;
55300;SDS011;58302;51.446;-2.000;2022-11-23T09:27:45;4.43;;;1.60;;
55300;SDS011;58302;51.446;-2.000;2022-11-23T09:30:12;6.07;;;1.63;;
55300;SDS011;58302;51.446;-2.000;2022-11-23T09:32:38;6.30;;;1.75;;
55300;SDS011;58302;51.446;-2.000;2022-11-23T09:35:04;6.82;;;1.50;;
55300;SDS011;58302;51.446;-2.000;2022-11-23T09:37:30;5.47;;;1.60;;
55300;SDS011;58302;51.446;-2.000;2022-11-23T09:39:56;7.68;;;1.70;;
55300;SDS011;58302;51.446;-2.000;2022-11-23T09:48:09;7.65;;;2.20;;
55300;SDS011;58302;51.446;-2.000;2022-11-23T09:50:27;6.43;;;1.60;;
55300;SDS011;58302;51.446;-2.000;2022-11-23T09:53:32;7.43;;;2.90;;
55300;SDS011;58302;51.446;-2.000;2022-11-23T09:56:02;2.83;;;1.60;;
55300;SDS011;58302;51.446;-2.000;2022-11-23T09:58:39;9.10;;;2.08;;
55300;SDS011;58302;51.446;-2.000;2022-11-23T10:01:06;6.57;;;1.98;;
55300;SDS011;58302;51.446;-2.000;2022-11-23T10:03:37;12.10;;;1.85;;
55300;SDS011;58302;51.446;-2.000;2022-11-23T10:06:06;7.78;;;2.70;;
55300;SDS011;58302;51.446;-2.000;2022-11-23T10:20:36;5.60;;;1.80;;
55300;SDS011;58302;51.446;-2.000;2022-11-23T10:23:16;6.78;;;2.65;;
55300;SDS011;58302;51.446;-2.000;2022-11-23T10:25:51;9.02;;;2.60;;
55300;SDS011;58302;51.446;-2.000;2022-11-23T10:28:19;8.05;;;2.67;;
55300;SDS011;58302;51.446;-2.000;2022-11-23T10:36:39;6.90;;;2.30;;
55300;SDS011;58302;51.446;-2.000;2022-11-23T10:42:03;5.07;;;1.77;;
55300;SDS011;58302;51.446;-2.000;2022-11-23T10:44:42;7.15;;;2.65;;
55300;SDS011;58302;51.446;-2.000;2022-11-23T10:47:12;9.45;;;3.50;;
55300;SDS011;58302;51.446;-2.000;2022-11-23T10:49:59;11.10;;;2.53;;
55300;SDS011;58302;51.446;-2.000;2022-11-23T10:52:27;12.52;;;3.50;;
55300;SDS011;58302;51.446;-2.000;2022-11-23T10:54:58;4.05;;;2.08;;
55300;SDS011;58302;51.446;-2.000;2022-11-23T10:57:29;10.20;;;3.53;;
55300;SDS011;58302;51.446;-2.000;2022-11-23T10:59:59;9.77;;;4.43;;
55300;SDS011;58302;51.446;-2.000;2022-11-23T11:02:29;10.23;;;3.00;;
55300;SDS011;58302;51.446;-2.000;2022-11-23T11:07:54;9.15;;;2.90;;
55300;SDS011;58302;51.446;-2.000;2022-11-23T11:10:39;8.68;;;3.17;;
55300;SDS011;58302;51.446;-2.000;2022-11-23T11:15:53;7.75;;;2.80;;
55300;SDS011;58302;51.446;-2.000;2022-11-23T11:18:33;9.93;;;3.33;;
55300;SDS011;58302;51.446;-2.000;2022-11-23T11:21:05;8.73;;;2.65;;
55300;SDS011;58302;51.446;-2.000;2022-11-23T11:23:41;10.50;;;2.88;;
55300;SDS011;58302;51.446;-2.000;2022-11-23T11:26:19;11.02;;;2.63;;
55300;SDS011;58302;51.446;-2.000;2022-11-23T11:28:51;7.70;;;3.35;;
55300;SDS011;58302;51.446;-2.000;2022-11-23T11:32:02;9.15;;;3.15;;
55300;SDS011;58302;51.446;-2.000;2022-11-23T11:34:11;9.48;;;2.33;;
55300;SDS011;58302;51.446;-2.000;2022-11-23T11:39:36;12.90;;;3.05;;
55300;SDS011;58302;51.446;-2.000;2022-11-23T11:42:26;9.60;;;2.20;;
55300;SDS011;58302;51.446;-2.000;2022-11-23T11:45:16;9.48;;;3.00;;
55300;SDS011;58302;51.446;-2.000;2022-11-23T11:47:50;7.97;;;2.38;;
55300;SDS011;58302;51.446;-2.000;2022-11-23T11:50:28;9.60;;;2.75;;
55300;SDS011;58302;51.446;-2.000;2022-11-23T11:53:01;9.13;;;3.63;;
55300;SDS011;58302;51.446;-2.000;2022-11-23T11:55:47;11.15;;;3.05;;
55300;SDS011;58302;51.446;-2.000;2022-11-23T11:58:15;6.38;;;2.60;;
55300;SDS011;58302;51.446;-2.000;2022-11-23T12:00:43;7.75;;;2.95;;
55300;SDS011;58302;51.446;-2.000;2022-11-23T12:06:42;9.13;;;2.40;;
55300;SDS011;58302;51.446;-2.000;2022-11-23T12:09:16;7.63;;;2.40;;
55300;SDS011;58302;51.446;-2.000;2022-11-23T12:14:13;6.53;;;2.78;;
55300;SDS011;58302;51.446;-2.000;2022-11-23T12:22:13;7.82;;;3.60;;
55300;SDS011;58302;51.446;-2.000;2022-11-23T12:41:31;6.93;;;2.53;;
55300;SDS011;58302;51.446;-2.000;2022-11-23T12:47:21;11.90;;;2.70;;
55300;SDS011;58302;51.446;-2.000;2022-11-23T12:50:03;10.93;;;3.58;;
55300;SDS011;58302;51.446;-2.000;2022-11-23T13:09:40;8.82;;;3.58;;
55300;SDS011;58302;51.446;-2.000;2022-11-23T13:12:08;11.10;;;3.35;;
55300;SDS011;58302;51.446;-2.000;2022-11-23T13:23:14;7.13;;;2.60;;
55300;SDS011;58302;51.446;-2.000;2022-11-23T13:25:40;17.45;;;4.30;;
55300;SDS011;58302;51.446;-2.000;2022-11-23T13:33:43;10.23;;;3.22;;
55300;SDS011;58302;51.446;-2.000;2022-11-23T13:36:12;10.13;;;4.20;;
55300;SDS011;58302;51.446;-2.000;2022-11-23T13:42:08;8.82;;;2.65;;
55300;SDS011;58302;51.446;-2.000;2022-11-23T13:44:35;9.07;;;4.05;;
55300;SDS011;58302;51.446;-2.000;2022-11-23T13:47:05;11.93;;;4.13;;
55300;SDS011;58302;51.446;-2.000;2022-11-23T13:49:52;12.88;;;4.35;;
55300;SDS011;58302;51.446;-2.000;2022-11-23T13:52:47;8.98;;;2.92;;
55300;SDS011;58302;51.446;-2.000;2022-11-23T13:55:19;6.57;;;2.17;;
55300;SDS011;58302;51.446;-2.000;2022-11-23T14:00:52;9.13;;;2.15;;
55300;SDS011;58302;51.446;-2.000;2022-11-23T14:09:03;6.68;;;2.63;;
55300;SDS011;58302;51.446;-2.000;2022-11-23T14:11:30;6.05;;;2.13;;
55300;SDS011;58302;51.446;-2.000;2022-11-23T14:14:13;7.50;;;2.28;;
55300;SDS011;58302;51.446;-2.000;2022-11-23T14:28:25;7.22;;;2.20;;
55300;SDS011;58302;51.446;-2.000;2022-11-23T14:41:57;8.48;;;2.33;;
55300;SDS011;58302;51.446;-2.000;2022-11-23T14:44:26;6.78;;;3.08;;
55300;SDS011;58302;51.446;-2.000;2022-11-23T14:47:04;11.23;;;2.83;;
55300;SDS011;58302;51.446;-2.000;2022-11-23T14:49:31;7.85;;;2.25;;
55300;SDS011;58302;51.446;-2.000;2022-11-23T14:51:58;11.32;;;3.00;;
55300;SDS011;58302;51.446;-2.000;2022-11-23T14:54:24;6.22;;;2.65;;
55300;SDS011;58302;51.446;-2.000;2022-11-23T14:56:52;9.95;;;3.28;;
55300;SDS011;58302;51.446;-2.000;2022-11-23T14:59:23;11.13;;;3.08;;
55300;SDS011;58302;51.446;-2.000;2022-11-23T15:01:56;10.60;;;2.55;;
55300;SDS011;58302;51.446;-2.000;2022-11-23T15:04:30;15.75;;;3.90;;
55300;SDS011;58302;51.446;-2.000;2022-11-23T15:07:08;9.85;;;2.67;;
55300;SDS011;58302;51.446;-2.000;2022-11-23T15:09:48;8.13;;;2.42;;
55300;SDS011;58302;51.446;-2.000;2022-11-23T15:12:20;10.07;;;2.85;;
55300;SDS011;58302;51.446;-2.000;2022-11-23T15:14:48;8.18;;;2.13;;
55300;SDS011;58302;51.446;-2.000;2022-11-23T15:17:19;11.10;;;3.55;;
55300;SDS011;58302;51.446;-2.000;2022-11-23T15:19:56;6.90;;;2.53;;
55300;SDS011;58302;51.446;-2.000;2022-11-23T15:22:24;12.15;;;2.95;;
55300;SDS011;58302;51.446;-2.000;2022-11-23T15:24:51;6.07;;;2.03;;
55300;SDS011;58302;51.446;-2.000;2022-11-23T15:27:22;4.90;;;2.20;;
55300;SDS011;58302;51.446;-2.000;2022-11-23T15:29:56;5.97;;;2.65;;
55300;SDS011;58302;51.446;-2.000;2022-11-23T15:34:55;9.13;;;2.53;;
55300;SDS011;58302;51.446;-2.000;2022-11-23T15:37:23;9.60;;;4.18;;
55300;SDS011;58302;51.446;-2.000;2022-11-23T15:39:51;14.18;;;3.25;;
55300;SDS011;58302;51.446;-2.000;2022-11-23T15:42:21;6.70;;;2.92;;
55300;SDS011;58302;51.446;-2.000;2022-11-23T15:44:49;9.20;;;3.38;;
55300;SDS011;58302;51.446;-2.000;2022-11-23T15:47:25;17.17;;;4.05;;
55300;SDS011;58302;51.446;-2.000;2022-11-23T15:50:00;9.30;;;2.42;;
55300;SDS011;58302;51.446;-2.000;2022-11-23T15:52:33;8.95;;;3.78;;
55300;SDS011;58302;51.446;-2.000;2022-11-23T15:55:02;10.05;;;3.55;;
55300;SDS011;58302;51.446;-2.000;2022-11-23T15:57:30;13.75;;;3.13;;
55300;SDS011;58302;51.446;-2.000;2022-11-23T15:59:57;10.52;;;4.82;;
55300;SDS011;58302;51.446;-2.000;2022-11-23T16:02:27;10.52;;;2.85;;
55300;SDS011;58302;51.446;-2.000;2022-11-23T16:05:10;11.60;;;4.30;;
55300;SDS011;58302;51.446;-2.000;2022-11-23T16:12:59;16.60;;;3.83;;
55300;SDS011;58302;51.446;-2.000;2022-11-23T16:20:41;12.75;;;3.97;;
55300;SDS011;58302;51.446;-2.000;2022-11-23T16:23:15;10.02;;;4.03;;
55300;SDS011;58302;51.446;-2.000;2022-11-23T16:25:50;16.42;;;5.80;;
55300;SDS011;58302;51.446;-2.000;2022-11-23T16:28:25;16.48;;;4.43;;
55300;SDS011;58302;51.446;-2.000;2022-11-23T16:30:54;11.40;;;3.42;;
55300;SDS011;58302;51.446;-2.000;2022-11-23T16:33:20;7.45;;;2.88;;
55300;SDS011;58302;51.446;-2.000;2022-11-23T16:35:46;12.40;;;3.50;;
55300;SDS011;58302;51.446;-2.000;2022-11-23T16:38:13;9.05;;;3.60;;
55300;SDS011;58302;51.446;-2.000;2022-11-23T16:40:40;7.75;;;2.83;;
55300;SDS011;58302;51.446;-2.000;2022-11-23T16:43:08;7.03;;;2.58;;
55300;SDS011;58302;51.446;-2.000;2022-11-23T16:45:37;9.70;;;3.80;;
55300;SDS011;58302;51.446;-2.000;2022-11-23T16:48:07;14.32;;;3.05;;
55300;SDS011;58302;51.446;-2.000;2022-11-23T16:50:50;9.15;;;2.85;;
55300;SDS011;58302;51.446;-2.000;2022-11-23T16:53:19;9.35;;;3.60;;
55300;SDS011;58302;51.446;-2.000;2022-11-23T16:55:46;8.98;;;2.42;;
55300;SDS011;58302;51.446;-2.000;2022-11-23T16:58:16;12.45;;;3.40;;
55300;SDS011;58302;51.446;-2.000;2022-11-23T17:00:44;10.80;;;3.70;;
55300;SDS011;58302;51.446;-2.000;2022-11-23T17:03:13;8.68;;;3.25;;
55300;SDS011;58302;51.446;-2.000;2022-11-23T17:05:40;14.48;;;4.68;;
55300;SDS011;58302;51.446;-2.000;2022-11-23T17:08:06;6.35;;;3.80;;
55300;SDS011;58302;51.446;-2.000;2022-11-23T17:10:32;13.30;;;4.18;;
55300;SDS011;58302;51.446;-2.000;2022-11-23T17:12:59;11.30;;;4.38;;
55300;SDS011;58302;51.446;-2.000;2022-11-23T17:15:25;9.80;;;3.47;;